sensor_id;sensor_type;location;lat;lon;timestamp;pressure;altitude;pressure_sealevel;temperature;humidity
67545;BME280;54380;47.770;11.150;2023-12-07T08:16:46;95184.38;;;3.12;64.75
67545;BME280;54380;47.770;11.150;2023-12-07T08:19:15;95184.78;;;3.16;63.58
67545;BME280;54380;47.770;11.150;2023-12-07T08:21:42;95176.38;;;3.20;63.87
67545;BME280;54380;47.770;11.150;2023-12-07T08:24:09;95183.22;;;3.28;63.24
67545;BME280;54380;47.770;11.150;2023-12-07T08:26:35;95178.25;;;3.40;63.53
67545;BME280;54380;47.770;11.150;2023-12-07T08:29:03;95181.69;;;3.54;63.15
67545;BME280;54380;47.770;11.150;2023-12-07T08:31:37;95180.69;;;3.68;63.15
67545;BME280;54380;47.770;11.150;2023-12-07T08:34:08;95174.88;;;3.86;63.37
67545;BME280;54380;47.770;11.150;2023-12-07T08:36:36;95182.50;;;4.07;63.19
67545;BME280;54380;47.770;11.150;2023-12-07T08:39:03;95183.47;;;4.26;62.53
67545;BME280;54380;47.770;11.150;2023-12-07T08:41:29;95177.84;;;4.43;62.06
67545;BME280;54380;47.770;11.150;2023-12-07T08:44:10;95174.78;;;4.59;62.04
67545;BME280;54380;47.770;11.150;2023-12-07T08:46:51;95178.75;;;4.75;61.18
67545;BME280;54380;47.770;11.150;2023-12-07T09:29:13;95158.72;;;7.01;55.73
67545;BME280;54380;47.770;11.150;2023-12-07T09:31:40;95156.38;;;7.11;54.93
67545;BME280;54380;47.770;11.150;2023-12-07T09:34:14;95149.34;;;7.23;54.89
67545;BME280;54380;47.770;11.150;2023-12-07T09:36:45;95154.41;;;7.37;54.40
67545;BME280;54380;47.770;11.150;2023-12-07T09:39:12;95151.47;;;7.45;54.33
67545;BME280;54380;47.770;11.150;2023-12-07T09:41:40;95151.53;;;7.57;53.42
67545;BME280;54380;47.770;11.150;2023-12-07T09:44:09;95145.16;;;7.64;53.23
67545;BME280;54380;47.770;11.150;2023-12-07T09:46:47;95143.00;;;7.73;53.27
67545;BME280;54380;47.770;11.150;2023-12-07T09:49:16;95130.34;;;7.94;53.17
67545;BME280;54380;47.770;11.150;2023-12-07T09:51:47;95133.34;;;8.09;52.42
67545;BME280;54380;47.770;11.150;2023-12-07T09:54:14;95135.50;;;8.24;51.91
67545;BME280;54380;47.770;11.150;2023-12-07T09:56:43;95124.19;;;8.35;51.42
67545;BME280;54380;47.770;11.150;2023-12-07T10:29:48;95089.50;;;10.49;51.13
67545;BME280;54380;47.770;11.150;2023-12-07T11:02:07;95054.09;;;13.95;42.44
67545;BME280;54380;47.770;11.150;2023-12-07T11:04:37;95052.19;;;14.31;41.60
67545;BME280;54380;47.770;11.150;2023-12-07T11:07:06;95054.53;;;14.58;41.20
67545;BME280;54380;47.770;11.150;2023-12-07T11:09:35;95053.34;;;14.95;41.93
67545;BME280;54380;47.770;11.150;2023-12-07T11:12:05;95040.66;;;15.31;41.95
67545;BME280;54380;47.770;11.150;2023-12-07T11:14:37;95040.16;;;15.64;42.36
67545;BME280;54380;47.770;11.150;2023-12-07T11:17:04;95039.72;;;15.91;42.62
67545;BME280;54380;47.770;11.150;2023-12-07T11:19:44;95033.88;;;16.18;42.90
67545;BME280;54380;47.770;11.150;2023-12-07T11:22:12;95013.31;;;16.48;41.29
67545;BME280;54380;47.770;11.150;2023-12-07T11:24:51;95014.59;;;16.74;39.40
67545;BME280;54380;47.770;11.150;2023-12-07T11:27:18;95010.34;;;16.97;37.46
67545;BME280;54380;47.770;11.150;2023-12-07T11:29:45;95018.28;;;17.02;34.43
67545;BME280;54380;47.770;11.150;2023-12-07T11:32:12;95006.44;;;17.08;36.61
67545;BME280;54380;47.770;11.150;2023-12-07T11:34:52;94998.22;;;17.43;35.36
67545;BME280;54380;47.770;11.150;2023-12-07T11:37:19;94994.25;;;17.59;32.21
67545;BME280;54380;47.770;11.150;2023-12-07T11:39:46;94997.63;;;17.65;31.75
67545;BME280;54380;47.770;11.150;2023-12-07T11:42:14;94999.50;;;17.83;31.94
67545;BME280;54380;47.770;11.150;2023-12-07T11:44:41;94977.97;;;18.07;33.91
67545;BME280;54380;47.770;11.150;2023-12-07T11:47:08;94977.41;;;18.38;32.03
67545;BME280;54380;47.770;11.150;2023-12-07T11:49:36;94974.34;;;18.45;30.26
67545;BME280;54380;47.770;11.150;2023-12-07T11:52:14;94983.94;;;18.46;32.38
67545;BME280;54380;47.770;11.150;2023-12-07T11:54:43;94980.88;;;18.52;33.46
67545;BME280;54380;47.770;11.150;2023-12-07T11:57:09;94973.16;;;18.64;33.72
67545;BME280;54380;47.770;11.150;2023-12-07T11:59:36;94969.88;;;18.54;32.32
67545;BME280;54380;47.770;11.150;2023-12-07T12:02:03;94963.25;;;18.24;31.55
67545;BME280;54380;47.770;11.150;2023-12-07T12:04:30;94966.09;;;17.99;30.09
67545;BME280;54380;47.770;11.150;2023-12-07T12:06:57;94965.00;;;17.68;31.99
67545;BME280;54380;47.770;11.150;2023-12-07T12:09:27;94952.44;;;17.17;30.99
67545;BME280;54380;47.770;11.150;2023-12-07T12:11:58;94964.88;;;16.88;30.67
67545;BME280;54380;47.770;11.150;2023-12-07T12:14:27;94958.19;;;16.91;31.53
67545;BME280;54380;47.770;11.150;2023-12-07T12:16:54;94958.59;;;17.17;32.78
67545;BME280;54380;47.770;11.150;2023-12-07T12:19:25;94953.16;;;17.41;30.49
67545;BME280;54380;47.770;11.150;2023-12-07T12:22:00;94954.69;;;17.28;30.44
67545;BME280;54380;47.770;11.150;2023-12-07T12:24:30;94949.06;;;17.11;28.85
67545;BME280;54380;47.770;11.150;2023-12-07T12:26:57;94954.47;;;17.06;30.69
67545;BME280;54380;47.770;11.150;2023-12-07T12:29:24;94948.94;;;17.21;32.05
67545;BME280;54380;47.770;11.150;2023-12-07T12:32:00;94947.44;;;17.48;30.57
67545;BME280;54380;47.770;11.150;2023-12-07T12:34:29;94951.25;;;17.28;28.27
67545;BME280;54380;47.770;11.150;2023-12-07T12:36:56;94933.75;;;16.84;27.63
67545;BME280;54380;47.770;11.150;2023-12-07T12:39:26;94938.00;;;15.94;28.41
67545;BME280;54380;47.770;11.150;2023-12-07T12:42:01;94937.00;;;14.82;29.23
67545;BME280;54380;47.770;11.150;2023-12-07T12:44:29;94925.94;;;13.89;30.62
67545;BME280;54380;47.770;11.150;2023-12-07T12:47:04;94926.81;;;13.69;30.96
67545;BME280;54380;47.770;11.150;2023-12-07T12:49:37;94940.06;;;13.69;31.19
67545;BME280;54380;47.770;11.150;2023-12-07T12:52:04;94931.84;;;13.55;31.82
67545;BME280;54380;47.770;11.150;2023-12-07T12:54:31;94934.75;;;13.13;33.11
67545;BME280;54380;47.770;11.150;2023-12-07T12:57:02;94937.31;;;12.57;34.33
67545;BME280;54380;47.770;11.150;2023-12-07T12:59:29;94929.41;;;11.94;35.00
67545;BME280;54380;47.770;11.150;2023-12-07T13:01:55;94930.31;;;11.30;35.21
67545;BME280;54380;47.770;11.150;2023-12-07T13:04:23;94929.03;;;10.73;36.07
67545;BME280;54380;47.770;11.150;2023-12-07T13:06:52;94921.28;;;10.17;37.42
67545;BME280;54380;47.770;11.150;2023-12-07T13:09:18;94929.66;;;9.70;38.73
67545;BME280;54380;47.770;11.150;2023-12-07T13:11:47;94921.03;;;9.19;39.70
67545;BME280;54380;47.770;11.150;2023-12-07T13:14:17;94915.97;;;8.84;39.08
67545;BME280;54380;47.770;11.150;2023-12-07T13:16:45;94907.53;;;8.53;39.71
67545;BME280;54380;47.770;11.150;2023-12-07T13:19:12;94899.41;;;8.26;39.51
67545;BME280;54380;47.770;11.150;2023-12-07T13:21:39;94891.84;;;8.01;41.10
67545;BME280;54380;47.770;11.150;2023-12-07T13:24:06;94888.47;;;7.77;40.83
67545;BME280;54380;47.770;11.150;2023-12-07T13:26:34;94885.53;;;7.50;40.58
67545;BME280;54380;47.770;11.150;2023-12-07T13:29:01;94885.22;;;7.22;40.85
67545;BME280;54380;47.770;11.150;2023-12-07T13:31:29;94882.59;;;6.99;41.68
67545;BME280;54380;47.770;11.150;2023-12-07T13:33:56;94884.16;;;6.76;41.94
67545;BME280;54380;47.770;11.150;2023-12-07T13:36:27;94878.44;;;6.56;42.54
67545;BME280;54380;47.770;11.150;2023-12-07T13:38:55;94873.00;;;6.39;43.14
67545;BME280;54380;47.770;11.150;2023-12-07T13:41:22;94869.78;;;6.25;43.46
67545;BME280;54380;47.770;11.150;2023-12-07T13:43:49;94868.38;;;6.11;43.76
67545;BME280;54380;47.770;11.150;2023-12-07T13:46:17;94868.97;;;5.94;43.42
67545;BME280;54380;47.770;11.150;2023-12-07T13:48:45;94877.84;;;5.75;44.21
67545;BME280;54380;47.770;11.150;2023-12-07T13:51:13;94865.56;;;5.57;44.43
67545;BME280;54380;47.770;11.150;2023-12-07T13:53:39;94856.28;;;5.43;44.81
67545;BME280;54380;47.770;11.150;2023-12-07T13:56:06;94849.56;;;5.28;45.30
67545;BME280;54380;47.770;11.150;2023-12-07T13:58:34;94855.16;;;5.14;45.77
67545;BME280;54380;47.770;11.150;2023-12-07T14:01:02;94848.88;;;4.96;45.48
67545;BME280;54380;47.770;11.150;2023-12-07T14:03:28;94844.81;;;4.82;45.74
67545;BME280;54380;47.770;11.150;2023-12-07T14:05:57;94842.06;;;4.70;46.06
67545;BME280;54380;47.770;11.150;2023-12-07T14:08:24;94840.53;;;4.62;46.10
67545;BME280;54380;47.770;11.150;2023-12-07T14:10:52;94845.22;;;4.54;46.52
67545;BME280;54380;47.770;11.150;2023-12-07T14:13:19;94847.88;;;4.47;46.72
67545;BME280;54380;47.770;11.150;2023-12-07T14:15:45;94847.16;;;4.40;46.86
67545;BME280;54380;47.770;11.150;2023-12-07T14:18:12;94846.38;;;4.33;47.72
67545;BME280;54380;47.770;11.150;2023-12-07T14:20:41;94845.63;;;4.26;47.22
67545;BME280;54380;47.770;11.150;2023-12-07T14:23:30;94848.06;;;4.21;47.93
67545;BME280;54380;47.770;11.150;2023-12-07T14:25:57;94841.69;;;4.10;47.94
67545;BME280;54380;47.770;11.150;2023-12-07T14:28:30;94841.75;;;4.03;47.93
67545;BME280;54380;47.770;11.150;2023-12-07T14:31:01;94836.97;;;3.93;47.46
67545;BME280;54380;47.770;11.150;2023-12-07T14:33:28;94839.84;;;3.85;47.51
67545;BME280;54380;47.770;11.150;2023-12-07T14:35:55;94839.28;;;3.77;47.88
67545;BME280;54380;47.770;11.150;2023-12-07T14:38:22;94843.13;;;3.67;47.75
67545;BME280;54380;47.770;11.150;2023-12-07T14:40:51;94841.78;;;3.58;47.94
67545;BME280;54380;47.770;11.150;2023-12-07T14:43:17;94849.81;;;3.50;48.51
67545;BME280;54380;47.770;11.150;2023-12-07T14:45:47;94844.84;;;3.42;48.55
67545;BME280;54380;47.770;11.150;2023-12-07T14:48:14;94844.28;;;3.33;49.09
67545;BME280;54380;47.770;11.150;2023-12-07T14:50:41;94841.91;;;3.25;48.85
67545;BME280;54380;47.770;11.150;2023-12-07T14:53:09;94842.31;;;3.15;49.45
67545;BME280;54380;47.770;11.150;2023-12-07T14:55:37;94845.56;;;3.04;49.33
67545;BME280;54380;47.770;11.150;2023-12-07T14:58:05;94838.97;;;2.88;49.32
67545;BME280;54380;47.770;11.150;2023-12-07T15:00:32;94841.59;;;2.75;50.08
67545;BME280;54380;47.770;11.150;2023-12-07T15:02:59;94844.00;;;2.70;50.93
67545;BME280;54380;47.770;11.150;2023-12-07T15:05:25;94844.19;;;2.68;51.31
67545;BME280;54380;47.770;11.150;2023-12-07T15:07:52;94844.59;;;2.65;51.06
67545;BME280;54380;47.770;11.150;2023-12-07T15:10:19;94853.00;;;2.60;52.28
67545;BME280;54380;47.770;11.150;2023-12-07T15:12:46;94856.44;;;2.54;52.56
67545;BME280;54380;47.770;11.150;2023-12-07T15:15:14;94862.22;;;2.50;52.29
67545;BME280;54380;47.770;11.150;2023-12-07T15:17:41;94865.25;;;2.47;52.35
67545;BME280;54380;47.770;11.150;2023-12-07T15:20:08;94862.44;;;2.41;52.05
67545;BME280;54380;47.770;11.150;2023-12-07T15:22:36;94863.44;;;2.34;52.04
67545;BME280;54380;47.770;11.150;2023-12-07T15:25:05;94866.22;;;2.26;51.81
67545;BME280;54380;47.770;11.150;2023-12-07T15:27:32;94859.63;;;2.16;51.75
67545;BME280;54380;47.770;11.150;2023-12-07T15:29:58;94862.78;;;2.05;52.02
67545;BME280;54380;47.770;11.150;2023-12-07T15:32:27;94859.78;;;1.95;52.99
67545;BME280;54380;47.770;11.150;2023-12-07T15:34:54;94857.16;;;1.88;52.92
67545;BME280;54380;47.770;11.150;2023-12-07T15:37:21;94855.34;;;1.82;52.70
67545;BME280;54380;47.770;11.150;2023-12-07T15:39:48;94851.13;;;1.74;52.75
67545;BME280;54380;47.770;11.150;2023-12-07T15:42:14;94843.66;;;1.65;52.81
67545;BME280;54380;47.770;11.150;2023-12-07T15:44:41;94844.84;;;1.56;53.05
67545;BME280;54380;47.770;11.150;2023-12-07T15:47:08;94830.22;;;1.48;53.27
67545;BME280;54380;47.770;11.150;2023-12-07T15:49:36;94834.41;;;1.42;53.64
67545;BME280;54380;47.770;11.150;2023-12-07T15:52:03;94837.34;;;1.33;53.25
67545;BME280;54380;47.770;11.150;2023-12-07T15:54:30;94830.28;;;1.20;53.62
67545;BME280;54380;47.770;11.150;2023-12-07T15:57:06;94828.84;;;1.10;54.07
67545;BME280;54380;47.770;11.150;2023-12-07T15:59:36;94827.41;;;1.01;53.80
67545;BME280;54380;47.770;11.150;2023-12-07T16:02:03;94822.97;;;0.95;54.18
67545;BME280;54380;47.770;11.150;2023-12-07T16:04:30;94822.13;;;0.88;54.74
67545;BME280;54380;47.770;11.150;2023-12-07T16:07:04;94822.31;;;0.86;55.42
67545;BME280;54380;47.770;11.150;2023-12-07T16:09:35;94824.91;;;0.86;56.07
67545;BME280;54380;47.770;11.150;2023-12-07T16:12:03;94822.50;;;0.85;55.86
67545;BME280;54380;47.770;11.150;2023-12-07T16:14:31;94832.91;;;0.85;55.64
67545;BME280;54380;47.770;11.150;2023-12-07T16:16:58;94826.47;;;0.81;55.63
67545;BME280;54380;47.770;11.150;2023-12-07T16:19:25;94825.28;;;0.77;55.43
67545;BME280;54380;47.770;11.150;2023-12-07T16:21:52;94825.22;;;0.70;55.86
67545;BME280;54380;47.770;11.150;2023-12-07T16:24:21;94825.19;;;0.63;55.74
67545;BME280;54380;47.770;11.150;2023-12-07T16:26:48;94825.75;;;0.59;55.85
67545;BME280;54380;47.770;11.150;2023-12-07T16:29:15;94820.31;;;0.54;55.75
67545;BME280;54380;47.770;11.150;2023-12-07T16:31:42;94825.09;;;0.50;55.99
67545;BME280;54380;47.770;11.150;2023-12-07T16:34:09;94820.63;;;0.44;56.08
67545;BME280;54380;47.770;11.150;2023-12-07T16:36:36;94819.34;;;0.33;56.13
67545;BME280;54380;47.770;11.150;2023-12-07T16:39:03;94827.66;;;0.22;55.67
67545;BME280;54380;47.770;11.150;2023-12-07T16:41:33;94827.31;;;0.04;55.26
67545;BME280;54380;47.770;11.150;2023-12-07T16:44:10;94828.16;;;-0.11;55.44
67545;BME280;54380;47.770;11.150;2023-12-07T16:46:37;94819.69;;;-0.19;55.93
67545;BME280;54380;47.770;11.150;2023-12-07T16:49:04;94823.75;;;-0.32;55.76
67545;BME280;54380;47.770;11.150;2023-12-07T16:51:32;94822.28;;;-0.41;56.33
67545;BME280;54380;47.770;11.150;2023-12-07T16:54:02;94817.47;;;-0.44;57.35
67545;BME280;54380;47.770;11.150;2023-12-07T16:56:29;94808.88;;;-0.45;57.33
67545;BME280;54380;47.770;11.150;2023-12-07T16:58:59;94804.03;;;-0.48;56.76
67545;BME280;54380;47.770;11.150;2023-12-07T17:01:26;94803.34;;;-0.56;56.93
67545;BME280;54380;47.770;11.150;2023-12-07T17:03:52;94793.91;;;-0.64;56.70
67545;BME280;54380;47.770;11.150;2023-12-07T17:06:19;94791.63;;;-0.74;56.95
67545;BME280;54380;47.770;11.150;2023-12-07T17:08:46;94781.53;;;-0.83;56.75
67545;BME280;54380;47.770;11.150;2023-12-07T17:11:13;94786.19;;;-0.94;56.70
67545;BME280;54380;47.770;11.150;2023-12-07T17:13:40;94786.41;;;-1.10;56.93
67545;BME280;54380;47.770;11.150;2023-12-07T17:16:09;94781.22;;;-1.25;57.16
67545;BME280;54380;47.770;11.150;2023-12-07T17:18:36;94786.94;;;-1.29;57.29
67545;BME280;54380;47.770;11.150;2023-12-07T17:21:03;94774.81;;;-1.29;57.86
67545;BME280;54380;47.770;11.150;2023-12-07T17:23:30;94781.38;;;-1.26;57.68
67545;BME280;54380;47.770;11.150;2023-12-07T17:25:57;94776.56;;;-1.29;57.72
67545;BME280;54380;47.770;11.150;2023-12-07T17:28:24;94764.50;;;-1.37;57.77
67545;BME280;54380;47.770;11.150;2023-12-07T17:30:51;94751.94;;;-1.40;59.00
67545;BME280;54380;47.770;11.150;2023-12-07T17:33:19;94740.63;;;-1.39;58.57
67545;BME280;54380;47.770;11.150;2023-12-07T17:35:46;94741.31;;;-1.45;58.81
67545;BME280;54380;47.770;11.150;2023-12-07T17:38:13;94747.84;;;-1.49;59.24
67545;BME280;54380;47.770;11.150;2023-12-07T17:40:40;94743.28;;;-1.47;61.12
67545;BME280;54380;47.770;11.150;2023-12-07T17:43:06;94750.34;;;-1.41;62.86
67545;BME280;54380;47.770;11.150;2023-12-07T17:45:33;94738.72;;;-1.30;62.99
67545;BME280;54380;47.770;11.150;2023-12-07T17:48:00;94733.88;;;-1.19;63.09
67545;BME280;54380;47.770;11.150;2023-12-07T17:50:28;94725.41;;;-1.13;63.13
67545;BME280;54380;47.770;11.150;2023-12-07T17:52:55;94726.81;;;-1.10;63.98
67545;BME280;54380;47.770;11.150;2023-12-07T17:55:21;94722.69;;;-1.04;63.71
67545;BME280;54380;47.770;11.150;2023-12-07T17:57:48;94714.38;;;-1.00;62.20
67545;BME280;54380;47.770;11.150;2023-12-07T18:00:16;94707.59;;;-1.01;60.83
67545;BME280;54380;47.770;11.150;2023-12-07T18:02:43;94703.75;;;-1.05;61.30
67545;BME280;54380;47.770;11.150;2023-12-07T18:05:10;94711.72;;;-1.06;61.81
67545;BME280;54380;47.770;11.150;2023-12-07T18:07:38;94713.31;;;-1.05;62.65
67545;BME280;54380;47.770;11.150;2023-12-07T18:10:06;94712.50;;;-1.06;63.99
67545;BME280;54380;47.770;11.150;2023-12-07T18:12:33;94709.13;;;-1.06;64.81
67545;BME280;54380;47.770;11.150;2023-12-07T18:15:00;94709.53;;;-1.03;62.95
67545;BME280;54380;47.770;11.150;2023-12-07T18:17:27;94706.34;;;-1.05;62.63
67545;BME280;54380;47.770;11.150;2023-12-07T18:19:54;94701.09;;;-1.12;62.22
67545;BME280;54380;47.770;11.150;2023-12-07T18:22:21;94695.22;;;-1.20;63.72
67545;BME280;54380;47.770;11.150;2023-12-07T18:24:49;94695.75;;;-1.25;64.73
67545;BME280;54380;47.770;11.150;2023-12-07T18:27:16;94690.22;;;-1.22;65.10
67545;BME280;54380;47.770;11.150;2023-12-07T18:29:43;94679.16;;;-1.16;65.12
67545;BME280;54380;47.770;11.150;2023-12-07T18:32:10;94681.72;;;-1.16;63.46
67545;BME280;54380;47.770;11.150;2023-12-07T18:34:41;94676.63;;;-1.24;62.93
67545;BME280;54380;47.770;11.150;2023-12-07T18:37:08;94682.38;;;-1.28;64.91
67545;BME280;54380;47.770;11.150;2023-12-07T18:39:35;94682.75;;;-1.31;65.75
67545;BME280;54380;47.770;11.150;2023-12-07T18:42:04;94680.94;;;-1.31;65.99
67545;BME280;54380;47.770;11.150;2023-12-07T18:44:31;94673.97;;;-1.30;64.91
67545;BME280;54380;47.770;11.150;2023-12-07T18:46:58;94675.94;;;-1.33;65.36
67545;BME280;54380;47.770;11.150;2023-12-07T18:49:25;94674.16;;;-1.32;65.59
67545;BME280;54380;47.770;11.150;2023-12-07T18:51:51;94673.56;;;-1.34;65.95
67545;BME280;54380;47.770;11.150;2023-12-07T18:54:18;94673.72;;;-1.36;66.48
67545;BME280;54380;47.770;11.150;2023-12-07T18:56:45;94666.13;;;-1.37;66.76
67545;BME280;54380;47.770;11.150;2023-12-07T18:59:13;94654.59;;;-1.35;66.36
67545;BME280;54380;47.770;11.150;2023-12-07T19:01:40;94651.41;;;-1.37;65.37
67545;BME280;54380;47.770;11.150;2023-12-07T19:04:07;94656.34;;;-1.42;64.68
67545;BME280;54380;47.770;11.150;2023-12-07T19:06:34;94644.09;;;-1.48;63.26
67545;BME280;54380;47.770;11.150;2023-12-07T19:09:00;94640.81;;;-1.57;62.48
67545;BME280;54380;47.770;11.150;2023-12-07T19:11:28;94632.91;;;-1.70;63.14
67545;BME280;54380;47.770;11.150;2023-12-07T19:13:56;94638.91;;;-1.84;61.37
67545;BME280;54380;47.770;11.150;2023-12-07T19:16:26;94632.91;;;-2.00;64.10
67545;BME280;54380;47.770;11.150;2023-12-07T19:18:52;94626.31;;;-2.02;63.49
67545;BME280;54380;47.770;11.150;2023-12-07T19:21:20;94623.19;;;-2.12;62.62
67545;BME280;54380;47.770;11.150;2023-12-07T19:23:46;94640.22;;;-2.18;63.43
67545;BME280;54380;47.770;11.150;2023-12-07T19:26:13;94640.91;;;-2.24;64.10
67545;BME280;54380;47.770;11.150;2023-12-07T19:28:39;94648.41;;;-2.29;65.49
67545;BME280;54380;47.770;11.150;2023-12-07T19:31:07;94649.31;;;-2.22;66.45
67545;BME280;54380;47.770;11.150;2023-12-07T19:33:36;94649.13;;;-2.21;66.55
67545;BME280;54380;47.770;11.150;2023-12-07T19:36:03;94646.34;;;-2.19;66.38
67545;BME280;54380;47.770;11.150;2023-12-07T19:38:30;94645.56;;;-2.19;64.94
67545;BME280;54380;47.770;11.150;2023-12-07T19:40:58;94641.09;;;-2.26;62.32
67545;BME280;54380;47.770;11.150;2023-12-07T19:43:25;94632.53;;;-2.41;60.48
67545;BME280;54380;47.770;11.150;2023-12-07T19:45:52;94636.06;;;-2.57;59.80
67545;BME280;54380;47.770;11.150;2023-12-07T19:48:19;94636.50;;;-2.68;59.84
67545;BME280;54380;47.770;11.150;2023-12-07T19:50:47;94621.06;;;-2.76;60.03
67545;BME280;54380;47.770;11.150;2023-12-07T19:53:13;94619.00;;;-2.81;61.77
67545;BME280;54380;47.770;11.150;2023-12-07T19:55:40;94597.25;;;-2.87;61.20
67545;BME280;54380;47.770;11.150;2023-12-07T19:58:07;94601.50;;;-2.94;61.48
67545;BME280;54380;47.770;11.150;2023-12-07T20:00:34;94604.78;;;-3.00;60.87
67545;BME280;54380;47.770;11.150;2023-12-07T20:03:02;94613.19;;;-3.06;61.45
67545;BME280;54380;47.770;11.150;2023-12-07T20:05:29;94610.00;;;-3.08;63.38
67545;BME280;54380;47.770;11.150;2023-12-07T20:07:57;94604.84;;;-3.08;62.42
67545;BME280;54380;47.770;11.150;2023-12-07T20:10:25;94608.09;;;-3.14;60.76
67545;BME280;54380;47.770;11.150;2023-12-07T20:12:51;94609.59;;;-3.20;63.12
67545;BME280;54380;47.770;11.150;2023-12-07T20:15:18;94604.44;;;-3.20;64.18
67545;BME280;54380;47.770;11.150;2023-12-07T20:17:45;94612.00;;;-3.18;64.25
67545;BME280;54380;47.770;11.150;2023-12-07T20:20:11;94608.00;;;-3.21;62.85
67545;BME280;54380;47.770;11.150;2023-12-07T20:22:38;94608.16;;;-3.22;64.61
67545;BME280;54380;47.770;11.150;2023-12-07T20:25:07;94614.75;;;-3.20;64.55
67545;BME280;54380;47.770;11.150;2023-12-07T20:27:33;94605.72;;;-3.24;62.29
67545;BME280;54380;47.770;11.150;2023-12-07T20:30:00;94613.53;;;-3.32;62.18
67545;BME280;54380;47.770;11.150;2023-12-07T20:32:27;94610.84;;;-3.39;62.96
67545;BME280;54380;47.770;11.150;2023-12-07T20:34:54;94620.53;;;-3.41;63.67
67545;BME280;54380;47.770;11.150;2023-12-07T20:37:21;94612.16;;;-3.43;63.95
67545;BME280;54380;47.770;11.150;2023-12-07T20:39:48;94612.16;;;-3.43;63.95
67545;BME280;54380;47.770;11.150;2023-12-07T20:42:17;94614.72;;;-3.43;62.05
67545;BME280;54380;47.770;11.150;2023-12-07T20:44:43;94611.56;;;-3.53;60.66
67545;BME280;54380;47.770;11.150;2023-12-07T20:47:10;94611.00;;;-3.63;61.15
67545;BME280;54380;47.770;11.150;2023-12-07T20:49:37;94611.66;;;-3.69;61.44
67545;BME280;54380;47.770;11.150;2023-12-07T20:52:05;94601.66;;;-3.72;61.89
67545;BME280;54380;47.770;11.150;2023-12-07T20:54:33;94608.81;;;-3.83;60.23
67545;BME280;54380;47.770;11.150;2023-12-07T20:56:59;94609.00;;;-3.92;59.56
67545;BME280;54380;47.770;11.150;2023-12-07T20:59:28;94604.72;;;-4.00;59.71
67545;BME280;54380;47.770;11.150;2023-12-07T21:01:54;94602.78;;;-4.06;61.51
67545;BME280;54380;47.770;11.150;2023-12-07T21:04:21;94600.53;;;-4.09;62.58
67545;BME280;54380;47.770;11.150;2023-12-07T21:06:48;94602.31;;;-4.10;63.65
67545;BME280;54380;47.770;11.150;2023-12-07T21:09:15;94605.69;;;-4.09;63.86
67545;BME280;54380;47.770;11.150;2023-12-07T21:11:42;94603.75;;;-4.07;64.32
67545;BME280;54380;47.770;11.150;2023-12-07T21:14:09;94596.97;;;-4.08;64.18
67545;BME280;54380;47.770;11.150;2023-12-07T21:16:37;94593.78;;;-4.10;62.94
67545;BME280;54380;47.770;11.150;2023-12-07T21:19:04;94586.09;;;-4.18;61.81
67545;BME280;54380;47.770;11.150;2023-12-07T21:21:30;94584.34;;;-4.26;61.23
67545;BME280;54380;47.770;11.150;2023-12-07T21:23:57;94575.00;;;-4.35;60.52
67545;BME280;54380;47.770;11.150;2023-12-07T21:26:24;94564.72;;;-4.44;59.70
67545;BME280;54380;47.770;11.150;2023-12-07T21:28:50;94553.50;;;-4.59;58.47
67545;BME280;54380;47.770;11.150;2023-12-07T21:31:19;94550.00;;;-4.82;57.74
67545;BME280;54380;47.770;11.150;2023-12-07T21:33:47;94539.59;;;-4.97;58.35
67545;BME280;54380;47.770;11.150;2023-12-07T21:36:14;94525.91;;;-5.06;58.27
67545;BME280;54380;47.770;11.150;2023-12-07T21:38:40;94522.06;;;-5.10;58.75
67545;BME280;54380;47.770;11.150;2023-12-07T21:41:07;94516.44;;;-5.22;57.83
67545;BME280;54380;47.770;11.150;2023-12-07T21:43:34;94513.25;;;-5.24;59.26
67545;BME280;54380;47.770;11.150;2023-12-07T21:46:01;94503.44;;;-5.28;61.79
67545;BME280;54380;47.770;11.150;2023-12-07T21:48:29;94503.75;;;-5.23;62.13
67545;BME280;54380;47.770;11.150;2023-12-07T21:50:57;94498.09;;;-5.19;61.30
67545;BME280;54380;47.770;11.150;2023-12-07T21:53:23;94482.50;;;-5.17;60.04
67545;BME280;54380;47.770;11.150;2023-12-07T21:55:50;94478.47;;;-5.20;60.14
67545;BME280;54380;47.770;11.150;2023-12-07T21:58:17;94476.25;;;-5.23;59.70
67545;BME280;54380;47.770;11.150;2023-12-07T22:00:43;94483.97;;;-5.39;58.91
67545;BME280;54380;47.770;11.150;2023-12-07T22:03:10;94473.53;;;-5.46;57.98
67545;BME280;54380;47.770;11.150;2023-12-07T22:05:37;94468.72;;;-5.57;58.48
67545;BME280;54380;47.770;11.150;2023-12-07T22:08:05;94458.75;;;-5.68;57.32
67545;BME280;54380;47.770;11.150;2023-12-07T22:10:32;94460.50;;;-5.77;58.74
67545;BME280;54380;47.770;11.150;2023-12-07T22:12:58;94452.47;;;-5.82;59.54
67545;BME280;54380;47.770;11.150;2023-12-07T22:15:25;94448.63;;;-5.78;61.45
67545;BME280;54380;47.770;11.150;2023-12-07T22:17:52;94460.19;;;-5.74;60.83
67545;BME280;54380;47.770;11.150;2023-12-07T22:20:19;94457.94;;;-5.77;59.64
67545;BME280;54380;47.770;11.150;2023-12-07T22:22:45;94447.00;;;-5.87;60.74
67545;BME280;54380;47.770;11.150;2023-12-07T22:25:13;94454.25;;;-5.83;63.60
67545;BME280;54380;47.770;11.150;2023-12-07T22:27:40;94446.38;;;-5.73;66.13
67545;BME280;54380;47.770;11.150;2023-12-07T22:30:07;94453.44;;;-5.59;66.07
67545;BME280;54380;47.770;11.150;2023-12-07T22:32:34;94447.34;;;-5.49;64.91
67545;BME280;54380;47.770;11.150;2023-12-07T22:35:01;94447.00;;;-5.46;62.71
67545;BME280;54380;47.770;11.150;2023-12-07T22:37:28;94440.56;;;-5.51;61.72
67545;BME280;54380;47.770;11.150;2023-12-07T22:39:55;94425.66;;;-5.55;61.47
67545;BME280;54380;47.770;11.150;2023-12-07T22:42:23;94424.19;;;-5.58;60.97
67545;BME280;54380;47.770;11.150;2023-12-07T22:44:50;94422.25;;;-5.64;61.10
67545;BME280;54380;47.770;11.150;2023-12-07T22:47:17;94424.03;;;-5.64;63.50
67545;BME280;54380;47.770;11.150;2023-12-07T22:49:43;94413.41;;;-5.61;64.42
67545;BME280;54380;47.770;11.150;2023-12-07T22:52:10;94408.94;;;-5.59;67.39